DAL15C KEYW-KMCO
Flight info
| Callsign | DAL15C |
|---|---|
| Flight time | 0h 45m |
| Altitude | 32000 |
| Route | BUFTT1 GUFFS FERAL JOKRS4 |
| Aircraft | A20N/M-SDE2E3FGHIRWXY/LB1 |
Departure
| Time | 2026-04-21 21:42 |
|---|---|
| Airport | Key West International Airport (KEYW) |
Arrival
| Time | 2026-04-21 22:27 |
|---|---|
| Airport | Orlando International Airport (KMCO) |
| Time | Latitude | Longitude | Altitude | Speed | Heading |
|---|---|---|---|---|---|
| 2026-04-21 21:32 | 24.55475 | -81.75555 | 22 ft | 0 kts | 230° |
| 2026-04-21 21:37 | 24.55477 | -81.75552 | 22 ft | 1 kts | 230° |
| 2026-04-21 21:37 | 24.55483 | -81.75544 | 22 ft | 2 kts | 230° |
| 2026-04-21 21:38 | 24.55490 | -81.75535 | 22 ft | 1 kts | 249° |
| 2026-04-21 21:38 | 24.55489 | -81.75553 | 23 ft | 4 kts | 269° |
| 2026-04-21 21:38 | 24.55496 | -81.75570 | 22 ft | 2 kts | 312° |
| 2026-04-21 21:38 | 24.55528 | -81.75640 | 25 ft | 16 kts | 276° |
| 2026-04-21 21:39 | 24.55527 | -81.75849 | 22 ft | 36 kts | 270° |
| 2026-04-21 21:39 | 24.55523 | -81.76134 | 16 ft | 38 kts | 269° |
| 2026-04-21 21:39 | 24.55522 | -81.76392 | 15 ft | 24 kts | 270° |
| 2026-04-21 21:39 | 24.55520 | -81.76568 | 15 ft | 11 kts | 270° |
| 2026-04-21 21:40 | 24.55520 | -81.76595 | 15 ft | 1 kts | 270° |
| 2026-04-21 21:40 | 24.55522 | -81.76619 | 16 ft | 7 kts | 284° |
| 2026-04-21 21:40 | 24.55569 | -81.76655 | 18 ft | 8 kts | 15° |
| 2026-04-21 21:40 | 24.55607 | -81.76606 | 17 ft | 9 kts | 71° |
| 2026-04-21 21:41 | 24.55608 | -81.76584 | 17 ft | 2 kts | 90° |
| 2026-04-21 21:41 | 24.55608 | -81.76506 | 16 ft | 42 kts | 90° |
| 2026-04-21 21:41 | 24.55616 | -81.75812 | 21 ft | 139 kts | 89° |
| 2026-04-21 21:41 | 24.55652 | -81.74576 | 521 ft | 174 kts | 83° |
| 2026-04-21 21:42 | 24.56221 | -81.73337 | 1404 ft | 200 kts | 43° |
| 2026-04-21 21:42 | 24.57631 | -81.72910 | 2479 ft | 233 kts | 358° |
| 2026-04-21 21:42 | 24.59073 | -81.73837 | 3591 ft | 258 kts | 311° |
| 2026-04-21 21:42 | 24.59790 | -81.75685 | 4650 ft | 270 kts | 292° |
| 2026-04-21 21:43 | 24.60850 | -81.77395 | 5461 ft | 277 kts | 323° |
| 2026-04-21 21:43 | 24.62584 | -81.78219 | 5982 ft | 272 kts | 359° |
| 2026-04-21 21:43 | 24.64387 | -81.77859 | 6486 ft | 262 kts | 32° |
| 2026-04-21 21:43 | 24.65638 | -81.76459 | 6954 ft | 260 kts | 65° |
| 2026-04-21 21:44 | 24.66025 | -81.74517 | 7440 ft | 264 kts | 84° |
| 2026-04-21 21:44 | 24.66460 | -81.72560 | 7926 ft | 268 kts | 66° |
| 2026-04-21 21:44 | 24.67512 | -81.70858 | 8406 ft | 274 kts | 44° |
| 2026-04-21 21:44 | 24.69141 | -81.69682 | 8924 ft | 298 kts | 27° |
| 2026-04-21 21:45 | 24.71133 | -81.68740 | 9444 ft | 325 kts | 22° |
| 2026-04-21 21:45 | 24.73315 | -81.67809 | 9983 ft | 346 kts | 21° |
| 2026-04-21 21:45 | 24.75605 | -81.66843 | 10454 ft | 358 kts | 21° |
| 2026-04-21 21:45 | 24.77943 | -81.65851 | 10909 ft | 363 kts | 20° |
| 2026-04-21 21:46 | 24.80313 | -81.64839 | 11361 ft | 366 kts | 20° |
| 2026-04-21 21:46 | 24.82694 | -81.63817 | 11826 ft | 369 kts | 19° |
| 2026-04-21 21:46 | 24.85096 | -81.62784 | 12318 ft | 372 kts | 19° |
| 2026-04-21 21:46 | 24.87520 | -81.61742 | 12820 ft | 375 kts | 20° |
| 2026-04-21 21:47 | 24.89962 | -81.60691 | 13334 ft | 378 kts | 19° |
| 2026-04-21 21:47 | 24.92427 | -81.59631 | 13844 ft | 385 kts | 20° |
| 2026-04-21 21:47 | 24.94966 | -81.58537 | 14326 ft | 398 kts | 19° |
| 2026-04-21 21:47 | 24.97586 | -81.57412 | 14796 ft | 409 kts | 19° |
| 2026-04-21 21:48 | 25.00263 | -81.56258 | 15314 ft | 417 kts | 19° |
| 2026-04-21 21:48 | 25.02990 | -81.55079 | 15872 ft | 423 kts | 18° |
| 2026-04-21 21:48 | 25.05750 | -81.53884 | 16438 ft | 429 kts | 18° |
| 2026-04-21 21:48 | 25.08537 | -81.52677 | 17012 ft | 432 kts | 18° |
| 2026-04-21 21:49 | 25.11356 | -81.51455 | 17600 ft | 435 kts | 19° |
| 2026-04-21 21:49 | 25.14144 | -81.50248 | 18186 ft | 437 kts | 19° |
| 2026-04-21 21:49 | 25.16986 | -81.49017 | 18741 ft | 439 kts | 18° |
| 2026-04-21 21:49 | 25.19831 | -81.47784 | 19264 ft | 440 kts | 18° |
| 2026-04-21 21:50 | 25.22684 | -81.46547 | 19777 ft | 442 kts | 18° |
| 2026-04-21 21:50 | 25.25552 | -81.45303 | 20250 ft | 445 kts | 18° |
| 2026-04-21 21:50 | 25.28446 | -81.44048 | 20736 ft | 448 kts | 18° |
| 2026-04-21 21:50 | 25.31363 | -81.42782 | 21221 ft | 452 kts | 18° |
| 2026-04-21 21:51 | 25.34300 | -81.41506 | 21714 ft | 455 kts | 18° |
| 2026-04-21 21:51 | 25.37262 | -81.40220 | 22218 ft | 459 kts | 18° |
| 2026-04-21 21:51 | 25.40245 | -81.38923 | 22748 ft | 463 kts | 18° |
| 2026-04-21 21:51 | 25.43289 | -81.37743 | 23268 ft | 463 kts | 11° |
| 2026-04-21 21:52 | 25.46462 | -81.37167 | 23792 ft | 461 kts | 360° |
| 2026-04-21 21:52 | 25.49648 | -81.37341 | 24236 ft | 459 kts | 347° |
| 2026-04-21 21:52 | 25.52719 | -81.38264 | 24698 ft | 457 kts | 335° |
| 2026-04-21 21:52 | 25.55578 | -81.39799 | 25161 ft | 457 kts | 328° |
| 2026-04-21 21:53 | 25.58301 | -81.41623 | 25629 ft | 458 kts | 325° |
| 2026-04-21 21:53 | 25.61002 | -81.43516 | 26104 ft | 460 kts | 325° |
| 2026-04-21 21:53 | 25.62796 | -81.44773 | 26422 ft | 461 kts | 325° |
| 2026-04-21 21:53 | 25.65513 | -81.46666 | 26911 ft | 461 kts | 326° |
| 2026-04-21 21:54 | 25.68225 | -81.48543 | 27404 ft | 459 kts | 326° |
| 2026-04-21 21:54 | 25.70932 | -81.50411 | 27921 ft | 457 kts | 326° |
| 2026-04-21 21:54 | 25.73633 | -81.52273 | 28436 ft | 456 kts | 326° |
| 2026-04-21 21:54 | 25.76330 | -81.54130 | 28943 ft | 455 kts | 326° |
| 2026-04-21 21:55 | 25.79011 | -81.55976 | 29494 ft | 453 kts | 326° |
| 2026-04-21 21:55 | 25.81684 | -81.57817 | 30043 ft | 451 kts | 326° |
| 2026-04-21 21:55 | 25.84342 | -81.59648 | 30546 ft | 448 kts | 326° |
| 2026-04-21 21:55 | 25.87024 | -81.61402 | 31018 ft | 448 kts | 330° |
| 2026-04-21 21:56 | 25.89879 | -81.62673 | 31499 ft | 450 kts | 340° |
| 2026-04-21 21:56 | 25.92917 | -81.63501 | 31977 ft | 449 kts | 343° |
| 2026-04-21 21:56 | 25.95958 | -81.64214 | 32188 ft | 446 kts | 343° |
| 2026-04-21 21:57 | 26.02028 | -81.65603 | 32210 ft | 446 kts | 344° |
| 2026-04-21 21:57 | 26.08104 | -81.67008 | 32191 ft | 445 kts | 343° |
| 2026-04-21 21:58 | 26.14167 | -81.68416 | 32192 ft | 445 kts | 343° |
| 2026-04-21 21:58 | 26.20229 | -81.69828 | 32192 ft | 445 kts | 343° |
| 2026-04-21 21:59 | 26.26293 | -81.71243 | 32194 ft | 445 kts | 343° |
| 2026-04-21 21:59 | 26.32355 | -81.72660 | 32193 ft | 445 kts | 343° |
| 2026-04-21 22:00 | 26.38421 | -81.74079 | 32212 ft | 446 kts | 343° |
| 2026-04-21 22:00 | 26.44450 | -81.75490 | 32220 ft | 446 kts | 343° |
| 2026-04-21 22:01 | 26.50537 | -81.76829 | 32221 ft | 448 kts | 348° |
| 2026-04-21 22:01 | 26.56839 | -81.76851 | 32220 ft | 455 kts | 357° |
| 2026-04-21 22:02 | 26.63167 | -81.76510 | 32242 ft | 455 kts | 358° |
| 2026-04-21 22:02 | 26.69502 | -81.76173 | 32212 ft | 456 kts | 358° |
| 2026-04-21 22:03 | 26.75847 | -81.75841 | 32225 ft | 456 kts | 358° |
| 2026-04-21 22:03 | 26.82193 | -81.75512 | 32226 ft | 456 kts | 358° |
| 2026-04-21 22:04 | 26.88530 | -81.75184 | 32229 ft | 456 kts | 358° |
| 2026-04-21 22:04 | 26.94842 | -81.74857 | 32225 ft | 456 kts | 358° |
| 2026-04-21 22:05 | 27.01185 | -81.74528 | 32235 ft | 456 kts | 358° |
| 2026-04-21 22:05 | 27.07524 | -81.74138 | 32230 ft | 456 kts | 358° |
| 2026-04-21 22:06 | 27.13858 | -81.73726 | 32233 ft | 456 kts | 358° |
| 2026-04-21 22:06 | 27.20197 | -81.73315 | 32238 ft | 456 kts | 358° |
| 2026-04-21 22:07 | 27.26520 | -81.73053 | 32232 ft | 450 kts | 352° |
| 2026-04-21 22:07 | 27.29534 | -81.73616 | 31874 ft | 443 kts | 342° |
| 2026-04-21 22:07 | 27.32501 | -81.74547 | 31404 ft | 443 kts | 340° |
| 2026-04-21 22:07 | 27.35460 | -81.75554 | 30921 ft | 446 kts | 339° |
| 2026-04-21 22:08 | 27.38440 | -81.76573 | 30449 ft | 448 kts | 339° |
| 2026-04-21 22:08 | 27.41428 | -81.77589 | 29921 ft | 447 kts | 339° |
| 2026-04-21 22:08 | 27.44399 | -81.78595 | 29381 ft | 445 kts | 339° |
| 2026-04-21 22:08 | 27.47358 | -81.79593 | 28855 ft | 442 kts | 339° |
| 2026-04-21 22:09 | 27.50295 | -81.80583 | 28324 ft | 439 kts | 339° |
| 2026-04-21 22:09 | 27.53213 | -81.81567 | 27811 ft | 436 kts | 339° |
| 2026-04-21 22:09 | 27.56109 | -81.82543 | 27308 ft | 433 kts | 339° |
| 2026-04-21 22:09 | 27.58990 | -81.83515 | 26811 ft | 429 kts | 339° |
| 2026-04-21 22:10 | 27.61823 | -81.84468 | 26329 ft | 420 kts | 340° |
| 2026-04-21 22:10 | 27.64673 | -81.85116 | 25849 ft | 418 kts | 352° |
| 2026-04-21 22:10 | 27.67570 | -81.84823 | 25376 ft | 422 kts | 9° |
| 2026-04-21 22:10 | 27.70372 | -81.83809 | 24920 ft | 424 kts | 15° |
| 2026-04-21 22:11 | 27.73127 | -81.82637 | 24466 ft | 423 kts | 16° |
| 2026-04-21 22:11 | 27.75832 | -81.81468 | 24028 ft | 420 kts | 16° |
| 2026-04-21 22:11 | 27.78542 | -81.80303 | 23532 ft | 412 kts | 16° |
| 2026-04-21 22:11 | 27.81205 | -81.79167 | 23004 ft | 405 kts | 16° |
| 2026-04-21 22:12 | 27.83820 | -81.78057 | 22495 ft | 399 kts | 16° |
| 2026-04-21 22:12 | 27.86404 | -81.76964 | 21986 ft | 394 kts | 16° |
| 2026-04-21 22:12 | 27.88962 | -81.75885 | 21421 ft | 391 kts | 17° |
| 2026-04-21 22:12 | 27.91527 | -81.74911 | 20856 ft | 386 kts | 11° |
| 2026-04-21 22:13 | 27.94131 | -81.74264 | 20304 ft | 381 kts | 8° |
| 2026-04-21 22:13 | 27.96727 | -81.73713 | 19760 ft | 378 kts | 7° |
| 2026-04-21 22:13 | 27.99291 | -81.73110 | 19224 ft | 376 kts | 13° |
| 2026-04-21 22:13 | 28.01652 | -81.71832 | 18706 ft | 379 kts | 34° |
| 2026-04-21 22:14 | 28.03436 | -81.69654 | 18123 ft | 382 kts | 56° |
| 2026-04-21 22:14 | 28.04403 | -81.66866 | 17535 ft | 381 kts | 75° |
| 2026-04-21 22:14 | 28.04910 | -81.63926 | 16951 ft | 379 kts | 78° |
| 2026-04-21 22:14 | 28.05342 | -81.60997 | 16375 ft | 375 kts | 79° |
| 2026-04-21 22:15 | 28.05768 | -81.58138 | 15825 ft | 371 kts | 78° |
| 2026-04-21 22:15 | 28.06209 | -81.55284 | 15270 ft | 366 kts | 78° |
| 2026-04-21 22:15 | 28.06654 | -81.52458 | 14716 ft | 361 kts | 77° |
| 2026-04-21 22:15 | 28.07098 | -81.49678 | 14199 ft | 357 kts | 77° |
| 2026-04-21 22:16 | 28.07539 | -81.46929 | 13609 ft | 353 kts | 78° |
| 2026-04-21 22:16 | 28.07976 | -81.44212 | 13028 ft | 348 kts | 77° |
| 2026-04-21 22:16 | 28.08301 | -81.41513 | 12509 ft | 343 kts | 85° |
| 2026-04-21 22:16 | 28.08403 | -81.38878 | 12170 ft | 323 kts | 84° |
| 2026-04-21 22:17 | 28.08814 | -81.36470 | 11806 ft | 302 kts | 71° |
| 2026-04-21 22:17 | 28.09687 | -81.34390 | 11434 ft | 285 kts | 55° |
| 2026-04-21 22:17 | 28.10995 | -81.32794 | 11047 ft | 271 kts | 34° |
| 2026-04-21 22:17 | 28.12606 | -81.31826 | 10801 ft | 255 kts | 22° |
| 2026-04-21 22:18 | 28.14279 | -81.31391 | 10551 ft | 245 kts | 358° |
| 2026-04-21 22:18 | 28.15879 | -81.31946 | 10316 ft | 243 kts | 328° |
| 2026-04-21 22:18 | 28.17014 | -81.33360 | 10084 ft | 254 kts | 298° |
| 2026-04-21 22:18 | 28.17503 | -81.35308 | 9834 ft | 261 kts | 279° |
| 2026-04-21 22:19 | 28.17707 | -81.37366 | 9574 ft | 263 kts | 276° |
| 2026-04-21 22:19 | 28.17864 | -81.39437 | 9321 ft | 264 kts | 276° |
| 2026-04-21 22:19 | 28.18036 | -81.41473 | 9064 ft | 252 kts | 282° |
| 2026-04-21 22:19 | 28.18599 | -81.43280 | 8736 ft | 238 kts | 301° |
| 2026-04-21 22:20 | 28.19612 | -81.44695 | 8362 ft | 227 kts | 323° |
| 2026-04-21 22:20 | 28.20994 | -81.45498 | 7992 ft | 221 kts | 349° |
| 2026-04-21 22:20 | 28.22502 | -81.45551 | 7630 ft | 214 kts | 14° |
| 2026-04-21 22:20 | 28.23844 | -81.44904 | 7201 ft | 212 kts | 36° |
| 2026-04-21 22:21 | 28.24852 | -81.43672 | 6719 ft | 218 kts | 59° |
| 2026-04-21 22:21 | 28.25322 | -81.42037 | 6216 ft | 220 kts | 83° |
| 2026-04-21 22:21 | 28.25157 | -81.40321 | 5715 ft | 220 kts | 102° |
| 2026-04-21 22:21 | 28.24688 | -81.38673 | 5220 ft | 219 kts | 107° |
| 2026-04-21 22:22 | 28.24175 | -81.37056 | 4710 ft | 217 kts | 108° |
| 2026-04-21 22:22 | 28.23669 | -81.35460 | 4232 ft | 213 kts | 108° |
| 2026-04-21 22:22 | 28.23193 | -81.33934 | 3984 ft | 204 kts | 107° |
| 2026-04-21 22:22 | 28.22843 | -81.32393 | 3587 ft | 201 kts | 96° |
| 2026-04-21 22:23 | 28.22956 | -81.30804 | 3147 ft | 200 kts | 75° |
| 2026-04-21 22:23 | 28.23611 | -81.29437 | 2939 ft | 203 kts | 50° |
| 2026-04-21 22:23 | 28.24829 | -81.28608 | 2744 ft | 205 kts | 25° |
| 2026-04-21 22:23 | 28.26190 | -81.28197 | 2484 ft | 202 kts | 14° |
| 2026-04-21 22:24 | 28.27580 | -81.28106 | 2233 ft | 197 kts | 5° |
| 2026-04-21 22:24 | 28.28918 | -81.28122 | 1981 ft | 189 kts | 5° |
| 2026-04-21 22:24 | 28.30212 | -81.28132 | 1729 ft | 184 kts | 6° |
| 2026-04-21 22:24 | 28.31490 | -81.28141 | 1600 ft | 184 kts | 6° |
| 2026-04-21 22:25 | 28.32764 | -81.28147 | 1586 ft | 180 kts | 5° |
| 2026-04-21 22:25 | 28.33970 | -81.28157 | 1590 ft | 169 kts | 6° |
| 2026-04-21 22:25 | 28.35122 | -81.28168 | 1463 ft | 160 kts | 8° |
| 2026-04-21 22:25 | 28.36204 | -81.28178 | 1271 ft | 153 kts | 6° |
| 2026-04-21 22:26 | 28.37253 | -81.28187 | 1047 ft | 149 kts | 6° |
| 2026-04-21 22:26 | 28.38270 | -81.28198 | 853 ft | 146 kts | 9° |
| 2026-04-21 22:26 | 28.39282 | -81.28208 | 651 ft | 143 kts | 10° |
| 2026-04-21 22:26 | 28.40276 | -81.28218 | 450 ft | 141 kts | 7° |
| 2026-04-21 22:27 | 28.41258 | -81.28227 | 268 ft | 142 kts | 6° |
| 2026-04-21 22:27 | 28.42238 | -81.28241 | 121 ft | 138 kts | 7° |
| 2026-04-21 22:27 | 28.43064 | -81.28245 | 102 ft | 78 kts | 359° |
| 2026-04-21 22:27 | 28.43418 | -81.28255 | 104 ft | 43 kts | 350° |
| 2026-04-21 22:28 | 28.43532 | -81.28346 | 106 ft | 0 kts | 261° |
| 2026-04-21 22:29 | 28.43475 | -81.28374 | 105 ft | 23 kts | 179° |
| 2026-04-21 22:29 | 28.43240 | -81.28371 | 102 ft | 47 kts | 179° |
| 2026-04-21 22:29 | 28.42864 | -81.28364 | 104 ft | 55 kts | 178° |
| 2026-04-21 22:30 | 28.42554 | -81.28364 | 111 ft | 18 kts | 185° |
| 2026-04-21 22:30 | 28.42478 | -81.28500 | 109 ft | 34 kts | 249° |
| 2026-04-21 22:30 | 28.42397 | -81.28764 | 108 ft | 35 kts | 251° |
| 2026-04-21 22:30 | 28.42300 | -81.29077 | 111 ft | 57 kts | 257° |
| 2026-04-21 22:31 | 28.42282 | -81.29529 | 102 ft | 58 kts | 270° |
| 2026-04-21 22:31 | 28.42279 | -81.29919 | 108 ft | 34 kts | 270° |
| 2026-04-21 22:31 | 28.42321 | -81.30131 | 106 ft | 19 kts | 346° |
| 2026-04-21 22:31 | 28.42441 | -81.30114 | 105 ft | 16 kts | 37° |
| 2026-04-21 22:32 | 28.42488 | -81.30079 | 106 ft | 2 kts | 27° |
| 2026-04-21 22:32 | 28.42516 | -81.30062 | 106 ft | 1 kts | 27° |
| 2026-04-21 22:32 | 28.42524 | -81.30058 | 106 ft | 0 kts | 30° |